This is the latest recevied weather packets stored in our database for station/object EA1FWM-12. If no packets are shown the sender has not sent any weather packets the latest 10 day(s).
| Time | Temp. | Humidity | Pressure | Rain* | Wind** | Luminosity | Snow |
|---|---|---|---|---|---|---|---|
| 1777058400 | 17.22° C | 58% | 1022.2 hPa | - | - | - | - |
| 1777057501 | 17.78° C | 56% | 1021.9 hPa | - | - | - | - |
| 1777056601 | 18.33° C | 55% | 1021.7 hPa | - | - | - | - |
| 1777055702 | 18.33° C | 54% | 1021.5 hPa | - | - | - | - |
| 1777053902 | 20° C | 51% | 1021.1 hPa | - | - | - | - |
| 1777053004 | 20.56° C | 50% | 1020.9 hPa | - | - | - | - |
| 1777052105 | 21.67° C | 48% | 1020.7 hPa | - | - | - | - |
| 1777051205 | 22.78° C | 46% | 1020.6 hPa | - | - | - | - |
| 1777050305 | 23.89° C | 46% | 1020.6 hPa | - | - | - | - |
| 1777049406 | 23.89° C | 44% | 1020.4 hPa | - | - | - | - |
| 1777048506 | 26.11° C | 43% | 1020.4 hPa | - | - | - | - |
| 1777046706 | 23.89° C | 45% | 1020.1 hPa | - | - | - | - |
| 1777045806 | 23.89° C | 44% | 1020.1 hPa | - | - | - | - |
| 1777044907 | 25.56° C | 43% | 1020.1 hPa | - | - | - | - |
| 1777044007 | 26.67° C | 40% | 1020.2 hPa | - | - | - | - |
| 1777043108 | 28.33° C | 41% | 1020.2 hPa | - | - | - | - |
| 1777042208 | 28.33° C | 44% | 1020.2 hPa | - | - | - | - |
| 1777041308 | 27.22° C | 43% | 1020.2 hPa | - | - | - | - |
| 1777040407 | 26.11° C | 45% | 1020.3 hPa | - | - | - | - |
| 1777039507 | 24.44° C | 49% | 1020.4 hPa | - | - | - | - |
| 1777038608 | 24.44° C | 48% | 1020.5 hPa | - | - | - | - |
| 1777037709 | 26.67° C | 46% | 1020.7 hPa | - | - | - | - |
| 1777036809 | 27.22° C | 48% | 1020.7 hPa | - | - | - | - |
| 1777035909 | 26.11° C | 50% | 1020.7 hPa | - | - | - | - |
| 1777035009 | 25° C | 50% | 1020.9 hPa | - | - | - | - |
* Rain since midnight (hover to see other rain measurements)
** Current wind speed in m/s (hover to see current wind gust speed)